Time;durP1;ratioP1;P1;durP2;ratioP2;P2;SDS_P1;SDS_P2;PMS_P1;PMS_P2;Temp;Humidity;BMP_temperature;BMP_pressure;BME280_temperature;BME280_humidity;BME280_pressure;Samples;Min_cycle;Max_cycle;Signal;HPM_P1;HPM_P2
2021/07/06 00:02:22;;;;;;;13.82;5.72;;;;;;;23.99;51.83;98793.03;4390289;32;20461;-74
2021/07/06 00:04:50;;;;;;;10.60;5.40;;;;;;;23.91;52.01;98795.91;4386559;32;20453;-72
2021/07/06 00:07:18;;;;;;;14.30;6.70;;;;;;;23.96;51.97;98791.31;4384992;32;20085;-73
2021/07/06 00:09:45;;;;;;;12.13;5.85;;;;;;;24.05;52.01;98782.09;4385587;32;20470;-73
2021/07/06 00:12:11;;;;;;;16.60;5.87;;;;;;;23.99;51.34;98788.03;4383699;32;20487;-71
2021/07/06 00:14:36;;;;;;;14.43;6.65;;;;;;;23.82;51.29;98779.25;4374976;32;20171;-75
2021/07/06 00:17:02;;;;;;;11.05;6.68;;;;;;;24.03;51.79;98770.41;4374941;32;20765;-71
2021/07/06 00:19:28;;;;;;;15.63;6.07;;;;;;;24.09;51.24;98768.88;4379347;32;20082;-73
2021/07/06 00:21:54;;;;;;;12.57;6.68;;;;;;;24.08;51.81;98764.47;4374525;32;20153;-73
2021/07/06 00:24:20;;;;;;;13.65;6.47;;;;;;;23.94;51.40;98766.00;4375930;32;20515;-73
2021/07/06 00:26:46;;;;;;;10.18;5.47;;;;;;;24.07;51.05;98768.69;4378013;32;20419;-72
2021/07/06 00:29:12;;;;;;;11.10;5.60;;;;;;;24.00;51.18;98772.34;4376060;32;20085;-74
2021/07/06 00:31:37;;;;;;;13.00;6.65;;;;;;;23.89;51.33;98751.81;4375541;32;20031;-73
2021/07/06 00:34:03;;;;;;;11.12;6.35;;;;;;;23.85;51.00;98748.59;4377980;32;20043;-72
2021/07/06 00:36:29;;;;;;;12.27;6.40;;;;;;;23.84;50.58;98744.94;4375588;32;20495;-74
2021/07/06 00:38:54;;;;;;;9.55;5.20;;;;;;;23.73;50.50;98744.59;4377761;32;20035;-74
2021/07/06 00:41:20;;;;;;;12.30;6.28;;;;;;;23.26;50.74;98748.09;4376293;32;20066;-73
2021/07/06 00:43:46;;;;;;;9.93;4.62;;;;;;;23.34;50.75;98734.50;4376074;32;20026;-74
2021/07/06 00:46:11;;;;;;;9.65;4.18;;;;;;;23.39;50.38;98728.56;4372763;32;20102;-74
2021/07/06 00:48:38;;;;;;;6.68;3.00;;;;;;;23.48;50.05;98725.09;4374336;32;20071;-75
2021/07/06 00:51:03;;;;;;;6.25;2.83;;;;;;;23.58;49.28;98719.53;4378073;32;20098;-71
2021/07/06 00:53:30;;;;;;;4.93;2.60;;;;;;;23.44;49.49;98710.38;4378554;32;20084;-74
2021/07/06 00:55:57;;;;;;;4.72;2.40;;;;;;;23.37;49.30;98702.53;4379003;32;20042;-73
2021/07/06 00:58:24;;;;;;;3.10;2.05;;;;;;;23.28;49.30;98700.25;4374621;32;20034;-75
2021/07/06 01:00:50;;;;;;;3.95;2.10;;;;;;;23.45;49.51;98691.81;4371198;32;20147;-77
2021/07/06 01:03:16;;;;;;;2.37;1.75;;;;;;;23.18;49.28;98672.69;4375778;32;20039;-75
2021/07/06 01:05:42;;;;;;;4.72;1.60;;;;;;;22.85;49.57;98671.72;4373396;32;20487;-73
2021/07/06 01:08:09;;;;;;;3.80;1.92;;;;;;;22.63;49.43;98663.09;4376249;32;20065;-72
2021/07/06 01:10:35;;;;;;;3.37;1.35;;;;;;;22.74;49.33;98662.72;4376393;32;20030;-72
2021/07/06 01:13:03;;;;;;;2.65;1.23;;;;;;;22.75;49.30;98658.53;4373037;32;20064;-71
2021/07/06 01:15:30;;;;;;;4.85;1.60;;;;;;;22.72;49.54;98643.22;4375754;32;20079;-72
2021/07/06 01:18:14;;;;;;;2.72;1.50;;;;;;;22.85;50.15;98640.16;4375680;32;20070;-76
2021/07/06 01:20:46;;;;;;;4.45;1.50;;;;;;;23.29;49.65;98632.16;4371503;32;20514;-77
2021/07/06 01:23:12;;;;;;;2.05;1.50;;;;;;;23.16;50.19;98620.81;4373429;32;20030;-72
2021/07/06 01:25:40;;;;;;;6.00;1.90;;;;;;;22.84;49.91;98609.19;4374022;32;20116;-75
2021/07/06 01:28:07;;;;;;;4.28;1.83;;;;;;;23.19;49.90;98605.31;4375173;32;20035;-74
2021/07/06 01:30:34;;;;;;;3.35;1.90;;;;;;;22.63;51.08;98600.03;4375478;32;20042;-73
2021/07/06 01:33:00;;;;;;;3.28;1.60;;;;;;;23.06;50.86;98588.34;4376635;32;20108;-72
2021/07/06 01:35:27;;;;;;;6.25;1.98;;;;;;;23.32;50.78;98579.34;4375522;32;20138;-72
2021/07/06 01:37:56;;;;;;;3.85;1.65;;;;;;;23.33;50.78;98575.13;4375152;32;20074;-76
2021/07/06 01:40:24;;;;;;;8.70;2.03;;;;;;;23.49;50.40;98571.62;4373612;32;20433;-75
2021/07/06 01:42:50;;;;;;;6.70;2.00;;;;;;;23.60;50.48;98561.03;4373785;32;20042;-75
2021/07/06 01:45:19;;;;;;;5.37;2.60;;;;;;;23.56;50.96;98560.69;4372425;32;20665;-74
2021/07/06 01:47:47;;;;;;;4.45;1.80;;;;;;;23.69;50.59;98557.56;4373602;32;20038;-73
2021/07/06 01:50:16;;;;;;;4.60;2.67;;;;;;;23.51;51.32;98548.81;4372214;32;20130;-73
2021/07/06 01:52:45;;;;;;;4.65;2.10;;;;;;;23.60;52.55;98540.94;4374827;32;20066;-74
2021/07/06 01:55:13;;;;;;;4.40;1.92;;;;;;;23.58;52.35;98540.75;4372981;32;20219;-74
2021/07/06 01:57:40;;;;;;;5.22;2.12;;;;;;;23.64;51.05;98529.81;4374344;32;20360;-76
2021/07/06 02:00:09;;;;;;;2.87;2.08;;;;;;;23.57;50.20;98524.88;4377149;32;20045;-73
2021/07/06 02:02:34;;;;;;;6.37;2.20;;;;;;;23.71;50.81;98520.44;4373250;32;20437;-74
2021/07/06 02:07:43;;;;;;;7.43;2.30;;;;;;;24.11;49.63;98514.00;4000622;31;15016380;-74
2021/07/06 02:10:10;;;;;;;7.30;2.40;;;;;;;24.12;49.61;98520.59;4457856;32;20029;-72
2021/07/06 02:12:36;;;;;;;4.32;2.42;;;;;;;23.67;51.10;98509.31;4455663;32;20134;-73
2021/07/06 02:15:05;;;;;;;7.18;3.40;;;;;;;23.76;50.92;98511.56;4456486;32;20464;-71
2021/07/06 02:17:31;;;;;;;6.75;2.60;;;;;;;23.68;52.99;98507.22;4456762;32;20095;-74
2021/07/06 02:19:57;;;;;;;7.28;3.40;;;;;;;23.54;53.00;98507.47;4456050;32;20111;-73
2021/07/06 02:22:23;;;;;;;9.43;3.20;;;;;;;23.48;52.60;98506.16;4457543;32;20055;-72
2021/07/06 02:24:48;;;;;;;7.15;2.78;;;;;;;23.27;56.30;98497.84;4457211;32;20357;-73
2021/07/06 02:27:15;;;;;;;6.47;2.87;;;;;;;23.06;57.54;98490.78;4457250;32;20122;-75
2021/07/06 02:29:41;;;;;;;6.10;2.78;;;;;;;22.99;56.30;98495.22;4456894;32;20059;-73
2021/07/06 02:32:08;;;;;;;5.37;2.60;;;;;;;23.25;55.03;98491.91;4457067;32;20091;-72
2021/07/06 02:34:33;;;;;;;4.03;2.08;;;;;;;23.39;53.93;98484.59;4456726;32;20033;-76
2021/07/06 02:36:59;;;;;;;4.75;1.55;;;;;;;23.31;53.50;98480.22;4455674;32;20128;-73
2021/07/06 02:39:25;;;;;;;5.10;1.60;;;;;;;23.40;53.40;98468.13;4457059;32;20361;-73
2021/07/06 02:41:51;;;;;;;5.18;1.30;;;;;;;23.38;53.50;98468.69;4456389;32;20107;-73
2021/07/06 02:44:17;;;;;;;2.92;1.67;;;;;;;23.39;53.32;98461.63;4456698;32;20099;-71
2021/07/06 02:46:43;;;;;;;2.78;1.70;;;;;;;23.49;52.79;98470.38;4457422;32;20085;-75
2021/07/06 02:49:09;;;;;;;3.17;0.80;;;;;;;23.29;52.24;98459.97;4455757;32;20025;-75
2021/07/06 02:51:35;;;;;;;2.15;0.82;;;;;;;23.31;51.79;98458.03;4456391;32;20059;-78
2021/07/06 02:54:02;;;;;;;3.10;0.98;;;;;;;23.38;52.11;98453.59;4455447;32;20080;-76
2021/07/06 02:56:28;;;;;;;2.15;1.02;;;;;;;23.60;51.83;98446.19;4455364;32;20105;-76
2021/07/06 02:58:54;;;;;;;1.30;0.82;;;;;;;23.64;51.81;98444.44;4456978;32;20025;-76
2021/07/06 03:01:20;;;;;;;1.25;0.77;;;;;;;23.28;51.69;98438.31;4448130;32;20075;-75
2021/07/06 03:03:46;;;;;;;3.40;0.65;;;;;;;23.32;51.97;98425.09;4440744;32;20025;-74
2021/07/06 03:06:11;;;;;;;1.12;0.50;;;;;;;23.22;51.66;98427.03;4436056;32;20069;-73
2021/07/06 03:08:37;;;;;;;2.10;0.90;;;;;;;23.31;51.89;98426.44;4440461;32;20073;-75
2021/07/06 03:11:03;;;;;;;0.73;0.60;;;;;;;23.39;51.87;98424.31;4437195;32;20061;-75
2021/07/06 03:13:29;;;;;;;1.45;0.88;;;;;;;23.43;51.84;98413.19;4439383;32;20485;-74
2021/07/06 03:15:54;;;;;;;1.50;0.80;;;;;;;23.53;52.04;98410.44;4438169;32;20096;-73
2021/07/06 03:18:20;;;;;;;1.00;0.75;;;;;;;23.42;51.81;98405.16;4432263;32;20068;-75
2021/07/06 03:20:48;;;;;;;1.20;0.80;;;;;;;23.48;51.42;98400.69;4426837;32;20821;-74
2021/07/06 03:23:14;;;;;;;0.93;0.73;;;;;;;23.50;51.61;98397.25;4428875;32;20042;-73
2021/07/06 03:25:41;;;;;;;3.35;0.80;;;;;;;23.61;51.40;98399.69;4427884;32;20539;-74
2021/07/06 03:28:06;;;;;;;2.53;0.80;;;;;;;23.56;51.76;98399.91;4428831;32;20544;-76
2021/07/06 03:30:35;;;;;;;5.12;0.90;;;;;;;23.57;51.41;98393.59;4426950;32;20530;-76
2021/07/06 03:33:02;;;;;;;1.20;0.65;;;;;;;23.86;51.01;98391.84;4428301;32;20375;-73
2021/07/06 03:35:28;;;;;;;2.05;0.70;;;;;;;23.80;50.76;98399.91;4426371;32;20789;-73
2021/07/06 03:37:55;;;;;;;1.65;0.93;;;;;;;23.51;50.90;98398.78;4429435;32;20088;-75
2021/07/06 03:40:21;;;;;;;2.70;0.70;;;;;;;23.77;50.64;98383.84;4425298;32;20063;-76
2021/07/06 03:42:48;;;;;;;2.15;0.70;;;;;;;23.69;50.34;98377.44;4429642;32;20099;-74
2021/07/06 03:45:15;;;;;;;2.37;0.75;;;;;;;23.74;50.57;98378.53;4427704;32;20069;-73
2021/07/06 03:47:41;;;;;;;0.60;0.60;;;;;;;23.54;50.63;98375.41;4426482;32;20482;-75
2021/07/06 03:50:11;;;;;;;1.70;0.60;;;;;;;23.57;50.65;98376.38;4429220;32;20125;-76
2021/07/06 03:52:37;;;;;;;1.55;0.90;;;;;;;23.91;50.47;98382.22;4429184;32;20084;-75
2021/07/06 03:55:04;;;;;;;1.10;0.93;;;;;;;23.61;50.42;98382.44;4427148;32;20025;-75
2021/07/06 03:57:30;;;;;;;3.15;0.80;;;;;;;23.91;50.27;98378.59;4428676;32;20081;-76
2021/07/06 03:59:57;;;;;;;1.48;0.90;;;;;;;23.82;50.53;98379.22;4427998;32;20084;-74
2021/07/06 04:02:23;;;;;;;3.25;0.70;;;;;;;23.96;50.77;98383.38;4426311;32;20131;-72
2021/07/06 04:04:49;;;;;;;1.98;0.82;;;;;;;23.82;50.20;98376.34;4426661;32;20077;-72
2021/07/06 04:07:15;;;;;;;1.10;0.90;;;;;;;23.94;50.01;98378.19;4426022;32;20384;-73
2021/07/06 04:09:41;;;;;;;1.70;0.75;;;;;;;23.93;50.00;98384.50;4425896;32;20064;-74
2021/07/06 04:12:07;;;;;;;4.65;1.20;;;;;;;23.95;49.62;98381.81;4427535;32;20168;-72
2021/07/06 04:14:33;;;;;;;1.40;0.80;;;;;;;23.87;49.76;98376.13;4426173;32;20049;-72
2021/07/06 04:16:58;;;;;;;1.02;0.82;;;;;;;23.97;49.58;98373.38;4425957;32;20041;-74
2021/07/06 04:19:24;;;;;;;1.83;1.12;;;;;;;24.03;49.16;98371.81;4427731;32;20081;-72
2021/07/06 04:21:50;;;;;;;1.40;0.85;;;;;;;24.10;48.95;98365.22;4427958;32;20041;-72
2021/07/06 04:24:15;;;;;;;1.30;1.12;;;;;;;24.20;48.93;98368.22;4428140;32;20693;-74
2021/07/06 04:26:41;;;;;;;1.73;1.10;;;;;;;24.35;49.40;98362.28;4426589;32;20521;-74
2021/07/06 04:29:06;;;;;;;5.80;1.80;;;;;;;24.45;49.72;98358.16;4424878;32;20485;-74
2021/07/06 04:31:32;;;;;;;3.47;1.20;;;;;;;24.50;49.15;98362.13;4426349;32;20034;-74
2021/07/06 04:33:58;;;;;;;2.33;1.20;;;;;;;24.64;48.80;98361.22;4427844;32;20042;-74
2021/07/06 04:36:24;;;;;;;4.70;1.62;;;;;;;24.57;48.81;98367.03;4428550;32;20075;-75
2021/07/06 04:38:49;;;;;;;6.25;1.40;;;;;;;24.72;49.05;98353.28;4428135;32;20052;-74
2021/07/06 04:41:15;;;;;;;1.87;1.42;;;;;;;24.74;48.69;98346.94;4423902;32;20451;-72
2021/07/06 04:43:41;;;;;;;5.20;1.90;;;;;;;24.72;49.17;98347.53;4424328;32;20076;-75
2021/07/06 04:46:07;;;;;;;4.85;2.17;;;;;;;24.88;48.59;98345.97;4425226;32;20477;-73
2021/07/06 04:48:33;;;;;;;5.97;1.60;;;;;;;24.78;47.95;98350.13;4427094;32;20339;-74
2021/07/06 04:51:05;;;;;;;2.40;1.40;;;;;;;24.74;48.61;98344.06;4426282;32;20342;-74
2021/07/06 04:53:31;;;;;;;2.58;1.50;;;;;;;24.78;48.30;98347.25;4424309;32;20061;-74
2021/07/06 04:55:58;;;;;;;2.10;1.50;;;;;;;24.76;48.45;98342.09;4428248;32;20081;-72
2021/07/06 04:58:24;;;;;;;5.60;1.55;;;;;;;24.74;48.70;98335.44;4428110;32;20041;-72
2021/07/06 05:00:49;;;;;;;2.22;1.50;;;;;;;24.73;48.56;98348.31;4423835;32;20104;-74
2021/07/06 05:03:15;;;;;;;2.25;1.30;;;;;;;24.73;48.61;98343.28;4427667;32;20385;-75
2021/07/06 05:05:41;;;;;;;3.85;2.08;;;;;;;24.60;48.01;98349.38;4424384;32;20025;-72
2021/07/06 05:08:10;;;;;;;6.37;2.35;;;;;;;24.67;47.89;98344.94;4428919;32;20089;-73
2021/07/06 05:10:35;;;;;;;4.93;1.80;;;;;;;24.85;47.79;98349.31;4425319;32;20081;-72
2021/07/06 05:13:02;;;;;;;1.83;1.33;;;;;;;24.56;48.71;98342.53;4412606;32;20081;-75
2021/07/06 05:15:28;;;;;;;3.87;1.50;;;;;;;24.34;48.45;98340.66;4426285;32;20120;-72
2021/07/06 05:17:53;;;;;;;2.70;1.80;;;;;;;24.47;48.26;98338.22;4426463;32;20700;-72
2021/07/06 05:20:19;;;;;;;8.63;1.80;;;;;;;24.45;48.31;98343.03;4425987;32;20033;-72
2021/07/06 05:22:45;;;;;;;3.87;1.80;;;;;;;24.58;47.79;98340.56;4425250;32;20081;-75
2021/07/06 05:25:12;;;;;;;4.28;1.85;;;;;;;24.64;48.61;98346.84;4425894;32;20037;-74
2021/07/06 05:27:38;;;;;;;4.60;2.00;;;;;;;24.76;48.17;98347.84;4414949;32;20088;-74
2021/07/06 05:30:07;;;;;;;6.07;2.15;;;;;;;24.71;47.94;98340.28;4427337;32;20402;-72
2021/07/06 05:32:32;;;;;;;6.70;2.40;;;;;;;25.14;47.62;98341.63;4422213;32;20540;-75
2021/07/06 05:34:58;;;;;;;5.20;1.95;;;;;;;25.06;47.20;98338.06;4425483;32;20081;-75
2021/07/06 05:37:24;;;;;;;5.25;1.87;;;;;;;25.16;47.63;98341.78;4426470;32;20430;-75
2021/07/06 05:39:49;;;;;;;6.80;1.90;;;;;;;25.27;46.65;98333.38;4425445;32;20070;-76
2021/07/06 05:42:16;;;;;;;10.70;2.50;;;;;;;25.37;46.75;98333.44;4425719;32;20106;-74
2021/07/06 05:44:44;;;;;;;6.53;1.62;;;;;;;25.52;46.72;98335.34;4425297;32;20057;-74
2021/07/06 05:47:10;;;;;;;7.47;1.90;;;;;;;25.79;46.40;98347.56;4426597;32;20081;-74
2021/07/06 05:49:36;;;;;;;6.85;2.30;;;;;;;25.81;45.79;98344.84;4424721;32;20534;-72
2021/07/06 05:52:02;;;;;;;6.62;2.00;;;;;;;25.88;45.66;98335.31;4425142;32;20324;-75
2021/07/06 05:54:27;;;;;;;9.00;2.42;;;;;;;25.99;44.78;98329.03;4426289;32;20053;-73
2021/07/06 05:56:53;;;;;;;9.13;2.03;;;;;;;26.22;44.52;98338.00;4426060;32;20092;-73
2021/07/06 05:59:19;;;;;;;6.47;2.37;;;;;;;26.14;44.19;98337.41;4426361;32;20060;-75
2021/07/06 06:01:45;;;;;;;7.87;1.90;;;;;;;25.93;44.54;98345.81;4426895;32;20037;-75
2021/07/06 06:04:11;;;;;;;6.95;2.10;;;;;;;25.65;45.06;98353.00;4423020;32;20033;-76
2021/07/06 06:06:36;;;;;;;14.25;2.60;;;;;;;25.17;45.49;98349.06;4426461;32;20175;-73
2021/07/06 06:09:03;;;;;;;8.60;2.10;;;;;;;25.21;45.86;98344.41;4425193;32;20421;-72
2021/07/06 06:11:28;;;;;;;15.82;3.05;;;;;;;25.09;45.91;98340.53;4424103;32;20137;-71
2021/07/06 06:13:54;;;;;;;14.13;2.85;;;;;;;24.60;46.72;98335.00;4425985;32;20122;-75
2021/07/06 06:16:20;;;;;;;16.98;2.78;;;;;;;24.28;47.61;98337.28;4425965;32;20119;-75
2021/07/06 06:18:46;;;;;;;16.40;3.35;;;;;;;24.35;47.53;98339.28;4428175;32;20069;-72
2021/07/06 06:21:12;;;;;;;14.15;3.28;;;;;;;24.59;47.12;98330.59;4426657;32;20046;-73
2021/07/06 06:23:38;;;;;;;11.40;2.60;;;;;;;24.25;47.58;98342.09;4424644;32;20132;-74
2021/07/06 06:26:04;;;;;;;12.23;3.08;;;;;;;24.61;47.11;98345.13;4425136;32;20135;-72
2021/07/06 06:28:29;;;;;;;19.80;3.47;;;;;;;24.65;46.86;98344.75;4427551;32;20108;-73
2021/07/06 06:30:55;;;;;;;12.52;2.80;;;;;;;25.14;46.44;98345.28;4424947;32;20069;-74
2021/07/06 06:33:22;;;;;;;15.50;3.45;;;;;;;25.14;45.90;98345.28;4421829;32;20446;-74
2021/07/06 06:35:47;;;;;;;13.13;2.62;;;;;;;25.53;45.86;98343.41;4415251;32;20097;-72
2021/07/06 06:38:13;;;;;;;19.27;3.10;;;;;;;25.64;45.16;98344.97;4426404;32;20108;-72
2021/07/06 06:40:38;;;;;;;17.08;2.85;;;;;;;25.55;44.77;98346.41;4420913;32;20428;-74
2021/07/06 06:43:04;;;;;;;10.65;2.65;;;;;;;25.16;45.62;98353.31;4420710;32;20042;-74
2021/07/06 06:45:31;;;;;;;17.00;3.50;;;;;;;25.21;45.56;98353.03;4415001;32;20066;-75
2021/07/06 06:48:01;;;;;;;10.35;2.53;;;;;;;25.16;46.30;98356.94;4414346;32;20076;-74
2021/07/06 06:50:30;;;;;;;11.65;3.00;;;;;;;24.46;47.33;98358.94;4415608;32;20482;-72
2021/07/06 06:52:56;;;;;;;14.10;2.83;;;;;;;23.91;48.21;98349.84;4420094;32;20433;-73
2021/07/06 06:55:21;;;;;;;10.35;3.30;;;;;;;23.82;48.72;98362.78;4421451;32;20693;-72
2021/07/06 06:57:47;;;;;;;14.15;3.62;;;;;;;23.94;49.29;98357.31;4419189;32;20065;-74
2021/07/06 07:00:14;;;;;;;13.93;3.10;;;;;;;24.19;48.83;98370.31;4424480;32;20123;-77
2021/07/06 07:02:43;;;;;;;13.77;3.22;;;;;;;24.30;48.94;98360.44;4415781;32;20369;-73
2021/07/06 07:05:12;;;;;;;15.10;3.25;;;;;;;24.53;48.40;98353.09;4401144;32;20505;-73
2021/07/06 07:07:39;;;;;;;16.90;3.40;;;;;;;24.42;48.09;98359.34;4417366;32;20125;-77
2021/07/06 07:10:08;;;;;;;17.50;3.28;;;;;;;24.50;47.33;98360.03;4420516;32;20750;-74
2021/07/06 07:12:35;;;;;;;12.65;2.85;;;;;;;24.85;46.90;98360.81;4418127;32;20543;-74
2021/07/06 07:15:03;;;;;;;16.00;3.40;;;;;;;24.88;46.69;98359.63;4418108;32;20074;-73
2021/07/06 07:17:30;;;;;;;10.32;2.62;;;;;;;24.90;46.15;98362.66;4419086;32;20088;-75
2021/07/06 07:19:56;;;;;;;14.45;2.70;;;;;;;24.72;45.90;98353.28;4419332;32;20045;-74
2021/07/06 07:22:23;;;;;;;19.45;3.55;;;;;;;25.11;45.72;98357.19;4416998;32;20505;-75
2021/07/06 07:24:50;;;;;;;9.13;2.53;;;;;;;25.22;45.70;98363.19;4418469;32;20089;-74
2021/07/06 07:27:17;;;;;;;13.80;2.87;;;;;;;25.00;44.88;98367.12;4418138;32;20082;-75
2021/07/06 07:29:43;;;;;;;13.40;2.87;;;;;;;25.35;44.65;98365.72;4419594;32;20089;-76
2021/07/06 07:32:10;;;;;;;10.52;2.33;;;;;;;25.41;44.31;98358.94;4418468;32;20084;-73
2021/07/06 07:34:37;;;;;;;9.13;2.40;;;;;;;25.32;44.51;98371.91;4421227;32;20377;-71
2021/07/06 07:37:04;;;;;;;14.20;2.65;;;;;;;25.64;43.65;98368.75;4417897;32;20097;-74
2021/07/06 07:39:30;;;;;;;13.48;2.30;;;;;;;25.54;43.91;98370.81;4419313;32;20092;-77
2021/07/06 07:41:56;;;;;;;14.70;2.95;;;;;;;25.76;44.16;98371.81;4421023;32;20104;-75
2021/07/06 07:44:22;;;;;;;13.95;2.75;;;;;;;25.79;44.20;98370.63;4419436;32;21163;-74
2021/07/06 07:46:49;;;;;;;10.25;2.45;;;;;;;25.78;44.04;98375.63;4416647;32;20045;-74
2021/07/06 07:49:18;;;;;;;15.35;3.22;;;;;;;26.24;43.09;98367.78;4416603;32;20119;-75
2021/07/06 07:51:45;;;;;;;7.97;1.90;;;;;;;26.50;42.77;98369.00;4420558;32;20060;-74
2021/07/06 07:54:11;;;;;;;14.40;2.60;;;;;;;26.58;41.49;98375.41;4421487;32;20057;-74
2021/07/06 07:56:37;;;;;;;16.75;2.97;;;;;;;26.49;41.84;98370.37;4416334;32;20069;-76
2021/07/06 07:59:03;;;;;;;12.43;2.28;;;;;;;26.55;41.45;98374.50;4419094;32;20054;-75
2021/07/06 08:01:29;;;;;;;7.87;1.92;;;;;;;26.73;41.26;98369.37;4407188;32;20478;-76
2021/07/06 08:03:56;;;;;;;13.50;2.17;;;;;;;26.76;40.49;98371.06;4418310;32;20446;-74
2021/07/06 08:06:22;;;;;;;9.02;1.85;;;;;;;27.19;39.67;98367.06;4422248;32;20077;-75
2021/07/06 08:08:49;;;;;;;6.47;2.22;;;;;;;27.36;40.50;98369.06;4419586;32;20064;-76
2021/07/06 08:11:14;;;;;;;10.02;1.87;;;;;;;27.45;40.24;98368.28;4416643;32;20078;-76
2021/07/06 08:13:40;;;;;;;11.63;2.50;;;;;;;27.88;39.69;98367.06;4405026;32;20081;-76
2021/07/06 08:16:06;;;;;;;7.75;2.03;;;;;;;28.10;39.08;98368.66;4422339;32;20566;-78
2021/07/06 08:18:33;;;;;;;5.80;1.33;;;;;;;27.91;38.93;98369.47;4419916;32;20076;-73
2021/07/06 08:20:58;;;;;;;5.40;2.20;;;;;;;28.20;38.57;98364.31;4418276;32;20128;-75
2021/07/06 08:23:25;;;;;;;9.50;1.60;;;;;;;28.29;38.34;98377.22;4416894;32;20102;-74
2021/07/06 08:25:50;;;;;;;3.25;0.90;;;;;;;28.74;36.51;98376.00;4418185;32;20042;-75
2021/07/06 08:28:18;;;;;;;4.45;1.10;;;;;;;28.36;36.57;98376.25;4406965;32;20358;-77
2021/07/06 08:30:44;;;;;;;6.43;0.93;;;;;;;28.21;36.85;98379.53;4416994;32;20109;-75
2021/07/06 08:33:10;;;;;;;3.95;1.00;;;;;;;28.22;37.15;98370.22;4418317;32;20081;-75
2021/07/06 08:35:36;;;;;;;5.43;1.02;;;;;;;27.88;37.29;98381.50;4419123;32;20064;-77
2021/07/06 08:38:02;;;;;;;5.35;0.62;;;;;;;28.14;38.34;98378.37;4417024;32;20082;-76
2021/07/06 08:40:29;;;;;;;2.15;0.65;;;;;;;27.92;36.87;98396.28;4415075;32;20072;-74
2021/07/06 08:42:59;;;;;;;2.83;0.98;;;;;;;28.00;37.39;98400.47;4412818;32;20454;-75
2021/07/06 08:45:26;;;;;;;1.12;0.80;;;;;;;28.32;36.59;98382.50;4418047;32;20497;-74
2021/07/06 08:47:53;;;;;;;1.08;0.60;;;;;;;28.30;36.49;98396.06;4418542;32;20138;-76
2021/07/06 08:50:19;;;;;;;1.73;0.95;;;;;;;27.92;36.29;98382.56;4394499;32;20699;-74
2021/07/06 08:52:45;;;;;;;4.62;0.75;;;;;;;27.81;36.51;98394.00;4418037;32;20527;-75
2021/07/06 08:55:14;;;;;;;2.65;0.70;;;;;;;27.93;37.13;98392.75;4420998;32;20076;-75
2021/07/06 08:57:41;;;;;;;1.42;0.75;;;;;;;27.97;36.64;98401.72;4403155;32;20350;-78
2021/07/06 09:00:09;;;;;;;3.95;0.98;;;;;;;28.20;36.76;98396.12;4417221;32;20565;-74
2021/07/06 09:02:35;;;;;;;1.12;0.70;;;;;;;28.57;36.80;98400.22;4418451;32;20074;-74
2021/07/06 09:05:01;;;;;;;3.80;0.82;;;;;;;28.71;35.96;98400.41;4417732;32;20141;-76
2021/07/06 09:07:43;;;;;;;1.48;0.50;;;;;;;28.33;36.26;98398.50;4419838;32;20089;-77
2021/07/06 09:10:12;;;;;;;0.98;0.70;;;;;;;28.96;34.70;98412.25;4418343;32;20092;-76
2021/07/06 09:12:38;;;;;;;1.50;0.90;;;;;;;28.90;34.96;98412.59;4418744;32;20086;-77
2021/07/06 09:18:12;;;;;;;2.05;0.93;;;;;;;29.25;35.42;98417.81;3947085;32;15727204;-76
2021/07/06 09:20:40;;;;;;;2.20;0.80;;;;;;;29.25;35.42;98417.81;4422007;32;20071;-78
2021/07/06 09:23:29;;;;;;;2.15;0.90;;;;;;;28.47;35.65;98416.84;4422940;32;20110;-78
2021/07/06 09:34:10;;;;;;;1.58;0.50;;;;;;;30.44;32.26;98432.84;3981278;32;15022176;-77
2021/07/06 09:36:43;;;;;;;2.15;0.90;;;;;;;30.44;32.26;98432.84;4432380;32;20096;-76
2021/07/06 09:47:18;;;;;;;3.05;0.70;;;;;;;29.55;35.81;98437.19;3964768;32;15025972;-75
2021/07/06 09:50:00;;;;;;;1.20;0.60;;;;;;;29.55;35.81;98437.19;4417249;32;20116;-76
2021/07/06 09:52:26;;;;;;;0.90;0.50;;;;;;;29.04;35.60;98435.97;4413793;32;20077;-76
2021/07/06 09:54:54;;;;;;;2.08;0.70;;;;;;;29.31;34.70;98445.06;4415541;32;20073;-77
2021/07/06 10:02:41;;;;;;;2.97;0.50;;;;;;;31.73;30.11;98464.06;3971532;32;15028935;-75
2021/07/06 10:05:10;;;;;;;1.40;0.52;;;;;;;31.74;30.11;98460.25;4415636;32;20052;-76
2021/07/06 10:07:39;;;;;;;2.05;1.15;;;;;;;31.38;30.56;98464.72;4412323;32;20077;-76
2021/07/06 10:10:10;;;;;;;3.78;0.90;;;;;;;31.65;29.95;98467.78;4417744;32;20137;-76
2021/07/06 10:12:37;;;;;;;3.47;1.42;;;;;;;31.90;30.53;98470.69;4415777;32;20042;-75
2021/07/06 10:15:06;;;;;;;2.62;1.30;;;;;;;32.34;28.75;98478.28;4418582;32;20093;-75
2021/07/06 10:17:34;;;;;;;1.10;0.60;;;;;;;32.67;28.89;98488.12;4408735;32;20077;-75
2021/07/06 10:20:00;;;;;;;2.70;1.10;;;;;;;32.07;29.68;98489.81;4416764;32;20064;-75
2021/07/06 10:22:26;;;;;;;1.23;0.90;;;;;;;31.69;31.63;98502.16;4406969;32;20089;-76
2021/07/06 10:24:52;;;;;;;3.65;0.90;;;;;;;30.45;33.09;98501.09;4413745;32;20064;-75
2021/07/06 10:27:25;;;;;;;1.37;0.70;;;;;;;30.03;36.72;98507.09;4408760;32;20111;-74
2021/07/06 10:46:30;;;;;;;2.03;0.40;;;;;;;27.10;42.27;98547.63;3969362;32;15022997;-75
2021/07/06 11:10:11;;;;;;;1.02;0.70;;;;;;;26.75;42.88;98603.28;3973209;32;15026431;-76
2021/07/06 11:12:42;;;;;;;2.10;0.75;;;;;;;25.80;43.79;98591.87;4424211;32;20038;-75
2021/07/06 11:18:03;;;;;;;0.98;0.75;;;;;;;26.61;42.84;98614.41;3982893;31;15014997;-74
2021/07/06 11:20:38;;;;;;;1.00;0.68;;;;;;;26.61;42.84;98614.41;4451059;32;20076;-77
2021/07/06 11:23:05;;;;;;;;;;;;;;;26.55;42.59;98607.38;4450412;32;20171;-75
2021/07/06 11:30:47;;;;;;;0.60;0.37;;;;;;;27.42;39.42;98621.53;3971802;32;15024285;-78
2021/07/06 11:35:55;;;;;;;1.52;0.50;;;;;;;29.55;37.22;98637.94;3969787;32;15023365;-76
2021/07/06 11:38:40;;;;;;;1.17;0.30;;;;;;;29.55;37.22;98637.94;4423116;32;20084;-77
2021/07/06 11:41:08;;;;;;;0.90;0.30;;;;;;;29.55;35.31;98648.78;4421255;32;20041;-76
2021/07/06 11:43:34;;;;;;;1.50;0.40;;;;;;;29.15;35.77;98657.56;4421222;32;20065;-73
2021/07/06 11:48:38;;;;;;;4.30;0.40;;;;;;;30.21;34.60;98677.31;3992294;31;15015448;-76
2021/07/06 11:51:07;;;;;;;0.37;0.30;;;;;;;30.21;34.60;98677.31;4440149;32;20077;-75
2021/07/06 11:53:37;;;;;;;0.45;0.40;;;;;;;30.06;35.01;98683.50;4443373;32;20109;-78
2021/07/06 11:56:05;;;;;;;0.50;0.40;;;;;;;28.97;35.52;98704.06;4444969;32;20081;-76
2021/07/06 11:58:33;;;;;;;0.70;0.50;;;;;;;28.69;35.85;98695.50;4444410;32;20443;-76
2021/07/06 12:01:03;;;;;;;1.00;0.70;;;;;;;28.33;35.77;98699.34;4439060;32;20072;-77
2021/07/06 12:03:30;;;;;;;3.40;0.70;;;;;;;27.52;36.67;98711.88;4429565;32;20641;-77
2021/07/06 12:08:42;;;;;;;1.62;1.12;;;;;;;28.35;36.73;98725.50;3973981;32;15026799;-75
2021/07/06 12:11:14;;;;;;;2.97;0.90;;;;;;;28.35;36.73;98725.50;4421783;32;20072;-77
2021/07/06 12:21:36;;;;;;;1.67;0.80;;;;;;;28.43;35.90;98757.19;3978460;32;15030523;-77
2021/07/06 12:24:06;;;;;;;1.58;1.00;;;;;;;28.43;35.90;98757.19;4428819;32;20037;-76
2021/07/06 12:26:35;;;;;;;1.27;1.00;;;;;;;27.34;37.05;98758.81;4426895;32;20073;-76
2021/07/06 12:29:01;;;;;;;4.65;1.40;;;;;;;27.07;37.89;98768.25;4430896;32;20049;-77
2021/07/06 12:31:30;;;;;;;2.15;1.15;;;;;;;26.41;39.11;98768.53;4428503;32;20129;-77
2021/07/06 12:34:06;;;;;;;2.70;1.10;;;;;;;27.27;37.26;98772.00;4427354;32;20102;-77
2021/07/06 12:39:12;;;;;;;2.50;1.23;;;;;;;27.39;36.48;98821.31;3964837;32;15027128;-78
2021/07/06 12:41:48;;;;;;;2.12;1.33;;;;;;;27.39;36.48;98821.31;4422850;32;20374;-79
2021/07/06 12:44:27;;;;;;;5.57;1.80;;;;;;;27.15;37.66;98820.09;4421178;32;20085;-77
2021/07/06 12:46:52;;;;;;;4.78;2.12;;;;;;;26.69;38.04;98816.31;4424784;32;20065;-77
2021/07/06 12:49:26;;;;;;;3.70;2.03;;;;;;;26.05;38.47;98828.91;4423508;32;20119;-76
2021/07/06 12:52:01;;;;;;;5.95;2.20;;;;;;;26.31;38.68;98839.03;4423000;32;20084;-77
2021/07/06 12:54:31;;;;;;;;;;;;;;;26.47;38.22;98837.50;4421315;32;20064;-78
2021/07/06 12:56:57;;;;;;;5.78;1.73;;;;;;;27.59;36.94;98843.91;4424560;32;19945;-77
2021/07/06 12:59:25;;;;;;;3.53;1.40;;;;;;;27.10;36.82;98845.00;4418891;32;20176;-76
2021/07/06 13:01:52;;;;;;;4.72;1.70;;;;;;;27.19;36.81;98840.66;4412567;32;20108;-74
2021/07/06 13:04:18;;;;;;;4.47;2.20;;;;;;;27.27;36.54;98849.97;4400793;32;20100;-76